sensor_id;sensor_type;location;lat;lon;timestamp;P1;durP1;ratioP1;P2;durP2;ratioP2
7583;SDS011;3833;41.764;26.204;2023-07-31T00:01:55;4.00;;;2.20;;
7583;SDS011;3833;41.764;26.204;2023-07-31T00:04:22;2.10;;;1.90;;
7583;SDS011;3833;41.764;26.204;2023-07-31T00:06:49;3.20;;;2.00;;
7583;SDS011;3833;41.764;26.204;2023-07-31T00:09:16;2.17;;;1.97;;
7583;SDS011;3833;41.764;26.204;2023-07-31T00:11:44;3.30;;;1.83;;
7583;SDS011;3833;41.764;26.204;2023-07-31T00:14:11;2.83;;;1.80;;
7583;SDS011;3833;41.764;26.204;2023-07-31T00:16:38;3.07;;;2.00;;
7583;SDS011;3833;41.764;26.204;2023-07-31T00:19:05;1.83;;;1.73;;
7583;SDS011;3833;41.764;26.204;2023-07-31T00:21:31;2.60;;;2.10;;
7583;SDS011;3833;41.764;26.204;2023-07-31T00:23:58;2.57;;;2.07;;
7583;SDS011;3833;41.764;26.204;2023-07-31T00:26:25;3.43;;;2.00;;
7583;SDS011;3833;41.764;26.204;2023-07-31T00:28:53;2.23;;;2.00;;
7583;SDS011;3833;41.764;26.204;2023-07-31T00:31:20;2.80;;;2.27;;
7583;SDS011;3833;41.764;26.204;2023-07-31T00:33:47;2.93;;;2.10;;
7583;SDS011;3833;41.764;26.204;2023-07-31T00:36:14;2.10;;;1.90;;
7583;SDS011;3833;41.764;26.204;2023-07-31T00:38:40;2.37;;;2.17;;
7583;SDS011;3833;41.764;26.204;2023-07-31T00:41:07;2.20;;;2.00;;
7583;SDS011;3833;41.764;26.204;2023-07-31T00:43:34;2.07;;;1.87;;
7583;SDS011;3833;41.764;26.204;2023-07-31T00:46:02;2.93;;;2.37;;
7583;SDS011;3833;41.764;26.204;2023-07-31T00:48:29;1.90;;;1.67;;
7583;SDS011;3833;41.764;26.204;2023-07-31T00:50:56;3.03;;;1.87;;
7583;SDS011;3833;41.764;26.204;2023-07-31T00:53:23;2.30;;;2.10;;
7583;SDS011;3833;41.764;26.204;2023-07-31T00:55:51;3.23;;;2.53;;
7583;SDS011;3833;41.764;26.204;2023-07-31T00:58:18;3.13;;;2.10;;
7583;SDS011;3833;41.764;26.204;2023-07-31T01:00:45;3.63;;;2.00;;
7583;SDS011;3833;41.764;26.204;2023-07-31T01:03:13;4.03;;;2.07;;
7583;SDS011;3833;41.764;26.204;2023-07-31T01:05:43;3.17;;;2.27;;
7583;SDS011;3833;41.764;26.204;2023-07-31T01:08:15;2.10;;;1.97;;
7583;SDS011;3833;41.764;26.204;2023-07-31T01:10:48;2.80;;;2.20;;
7583;SDS011;3833;41.764;26.204;2023-07-31T01:13:18;3.93;;;2.40;;
7583;SDS011;3833;41.764;26.204;2023-07-31T01:15:44;2.30;;;2.10;;
7583;SDS011;3833;41.764;26.204;2023-07-31T01:18:11;2.87;;;2.20;;
7583;SDS011;3833;41.764;26.204;2023-07-31T01:20:39;2.13;;;1.90;;
7583;SDS011;3833;41.764;26.204;2023-07-31T01:23:12;2.33;;;2.00;;
7583;SDS011;3833;41.764;26.204;2023-07-31T01:25:59;2.20;;;1.90;;
7583;SDS011;3833;41.764;26.204;2023-07-31T01:28:29;3.23;;;2.20;;
7583;SDS011;3833;41.764;26.204;2023-07-31T01:31:02;3.20;;;2.33;;
7583;SDS011;3833;41.764;26.204;2023-07-31T01:33:29;2.67;;;2.13;;
7583;SDS011;3833;41.764;26.204;2023-07-31T01:35:56;2.63;;;2.03;;
7583;SDS011;3833;41.764;26.204;2023-07-31T01:38:23;2.43;;;2.17;;
7583;SDS011;3833;41.764;26.204;2023-07-31T01:40:50;2.33;;;2.00;;
7583;SDS011;3833;41.764;26.204;2023-07-31T01:43:19;2.00;;;1.90;;
7583;SDS011;3833;41.764;26.204;2023-07-31T01:45:46;2.40;;;1.80;;
7583;SDS011;3833;41.764;26.204;2023-07-31T01:48:13;2.00;;;1.90;;
7583;SDS011;3833;41.764;26.204;2023-07-31T01:50:40;2.70;;;2.17;;
7583;SDS011;3833;41.764;26.204;2023-07-31T01:53:06;2.13;;;1.93;;
7583;SDS011;3833;41.764;26.204;2023-07-31T01:55:33;4.17;;;2.50;;
7583;SDS011;3833;41.764;26.204;2023-07-31T01:58:00;4.47;;;2.20;;
7583;SDS011;3833;41.764;26.204;2023-07-31T02:00:28;2.60;;;2.40;;
7583;SDS011;3833;41.764;26.204;2023-07-31T02:02:55;1.83;;;1.73;;
7583;SDS011;3833;41.764;26.204;2023-07-31T02:05:22;2.13;;;1.93;;
7583;SDS011;3833;41.764;26.204;2023-07-31T02:07:49;4.10;;;2.10;;
7583;SDS011;3833;41.764;26.204;2023-07-31T02:10:15;3.50;;;2.17;;
7583;SDS011;3833;41.764;26.204;2023-07-31T02:12:42;3.50;;;2.20;;
7583;SDS011;3833;41.764;26.204;2023-07-31T02:15:09;2.40;;;2.20;;
7583;SDS011;3833;41.764;26.204;2023-07-31T02:17:37;1.80;;;1.70;;
7583;SDS011;3833;41.764;26.204;2023-07-31T02:20:05;2.70;;;2.10;;
7583;SDS011;3833;41.764;26.204;2023-07-31T02:22:32;3.90;;;2.20;;
7583;SDS011;3833;41.764;26.204;2023-07-31T02:24:59;2.00;;;1.80;;
7583;SDS011;3833;41.764;26.204;2023-07-31T02:27:26;3.37;;;2.10;;
7583;SDS011;3833;41.764;26.204;2023-07-31T02:29:52;2.33;;;2.13;;
7583;SDS011;3833;41.764;26.204;2023-07-31T02:32:19;2.20;;;2.00;;
7583;SDS011;3833;41.764;26.204;2023-07-31T02:34:48;3.13;;;2.20;;
7583;SDS011;3833;41.764;26.204;2023-07-31T02:37:14;2.30;;;2.03;;
7583;SDS011;3833;41.764;26.204;2023-07-31T02:39:41;2.47;;;1.90;;
7583;SDS011;3833;41.764;26.204;2023-07-31T02:42:08;2.27;;;2.07;;
7583;SDS011;3833;41.764;26.204;2023-07-31T02:44:35;2.23;;;1.97;;
7583;SDS011;3833;41.764;26.204;2023-07-31T02:47:02;3.47;;;2.00;;
7583;SDS011;3833;41.764;26.204;2023-07-31T02:49:29;2.37;;;2.10;;
7583;SDS011;3833;41.764;26.204;2023-07-31T02:51:57;2.00;;;1.90;;
7583;SDS011;3833;41.764;26.204;2023-07-31T02:54:24;3.07;;;2.37;;
7583;SDS011;3833;41.764;26.204;2023-07-31T02:56:51;2.70;;;2.20;;
7583;SDS011;3833;41.764;26.204;2023-07-31T02:59:17;3.77;;;2.20;;
7583;SDS011;3833;41.764;26.204;2023-07-31T03:01:44;2.67;;;2.00;;
7583;SDS011;3833;41.764;26.204;2023-07-31T03:04:11;3.93;;;2.10;;
7583;SDS011;3833;41.764;26.204;2023-07-31T03:06:38;5.87;;;2.33;;
7583;SDS011;3833;41.764;26.204;2023-07-31T03:09:06;4.20;;;2.63;;
7583;SDS011;3833;41.764;26.204;2023-07-31T03:11:33;5.97;;;2.37;;
7583;SDS011;3833;41.764;26.204;2023-07-31T03:14:00;4.13;;;2.23;;
7583;SDS011;3833;41.764;26.204;2023-07-31T03:16:26;3.70;;;2.30;;
7583;SDS011;3833;41.764;26.204;2023-07-31T03:18:53;2.40;;;2.13;;
7583;SDS011;3833;41.764;26.204;2023-07-31T03:21:20;2.50;;;2.30;;
7583;SDS011;3833;41.764;26.204;2023-07-31T03:23:47;5.90;;;2.50;;
7583;SDS011;3833;41.764;26.204;2023-07-31T03:26:15;2.77;;;2.47;;
7583;SDS011;3833;41.764;26.204;2023-07-31T03:28:42;3.80;;;2.57;;
7583;SDS011;3833;41.764;26.204;2023-07-31T03:31:09;5.40;;;2.03;;
7583;SDS011;3833;41.764;26.204;2023-07-31T03:33:36;3.53;;;2.47;;
7583;SDS011;3833;41.764;26.204;2023-07-31T03:36:04;2.50;;;2.30;;
7583;SDS011;3833;41.764;26.204;2023-07-31T03:38:31;2.60;;;2.27;;
7583;SDS011;3833;41.764;26.204;2023-07-31T03:40:58;3.43;;;2.40;;
7583;SDS011;3833;41.764;26.204;2023-07-31T03:43:26;2.87;;;2.60;;
7583;SDS011;3833;41.764;26.204;2023-07-31T03:45:53;4.90;;;2.40;;
7583;SDS011;3833;41.764;26.204;2023-07-31T03:48:20;2.57;;;2.20;;
7583;SDS011;3833;41.764;26.204;2023-07-31T03:50:46;2.70;;;2.50;;
7583;SDS011;3833;41.764;26.204;2023-07-31T03:53:13;2.50;;;2.30;;
7583;SDS011;3833;41.764;26.204;2023-07-31T03:55:40;3.47;;;2.60;;
7583;SDS011;3833;41.764;26.204;2023-07-31T03:58:07;2.30;;;2.10;;
7583;SDS011;3833;41.764;26.204;2023-07-31T04:00:35;2.80;;;2.23;;
7583;SDS011;3833;41.764;26.204;2023-07-31T04:03:02;3.43;;;2.70;;
7583;SDS011;3833;41.764;26.204;2023-07-31T04:05:29;3.70;;;2.23;;
7583;SDS011;3833;41.764;26.204;2023-07-31T04:07:56;3.63;;;2.40;;
7583;SDS011;3833;41.764;26.204;2023-07-31T04:10:23;2.73;;;2.37;;
7583;SDS011;3833;41.764;26.204;2023-07-31T04:12:50;4.43;;;2.40;;
7583;SDS011;3833;41.764;26.204;2023-07-31T04:15:17;2.60;;;2.17;;
7583;SDS011;3833;41.764;26.204;2023-07-31T04:17:45;3.10;;;2.00;;
7583;SDS011;3833;41.764;26.204;2023-07-31T04:20:12;2.70;;;2.50;;
7583;SDS011;3833;41.764;26.204;2023-07-31T04:22:39;2.70;;;2.50;;
7583;SDS011;3833;41.764;26.204;2023-07-31T04:25:06;3.40;;;2.37;;
7583;SDS011;3833;41.764;26.204;2023-07-31T04:27:33;3.57;;;2.33;;
7583;SDS011;3833;41.764;26.204;2023-07-31T04:30:00;5.23;;;3.20;;
7583;SDS011;3833;41.764;26.204;2023-07-31T04:32:27;5.20;;;3.53;;
7583;SDS011;3833;41.764;26.204;2023-07-31T04:34:56;4.47;;;3.70;;
7583;SDS011;3833;41.764;26.204;2023-07-31T04:37:23;5.03;;;3.60;;
7583;SDS011;3833;41.764;26.204;2023-07-31T04:39:49;4.10;;;3.37;;
7583;SDS011;3833;41.764;26.204;2023-07-31T04:42:16;4.57;;;2.70;;
7583;SDS011;3833;41.764;26.204;2023-07-31T04:44:43;3.53;;;3.13;;
7583;SDS011;3833;41.764;26.204;2023-07-31T04:47:10;5.13;;;2.80;;
7583;SDS011;3833;41.764;26.204;2023-07-31T04:49:37;4.87;;;3.47;;
7583;SDS011;3833;41.764;26.204;2023-07-31T04:52:05;2.60;;;2.40;;
7583;SDS011;3833;41.764;26.204;2023-07-31T04:54:32;2.87;;;2.67;;
7583;SDS011;3833;41.764;26.204;2023-07-31T04:56:59;3.33;;;2.60;;
7583;SDS011;3833;41.764;26.204;2023-07-31T04:59:26;4.63;;;3.10;;
7583;SDS011;3833;41.764;26.204;2023-07-31T05:01:53;3.57;;;2.77;;
7583;SDS011;3833;41.764;26.204;2023-07-31T05:04:20;3.30;;;2.70;;
7583;SDS011;3833;41.764;26.204;2023-07-31T05:06:46;3.80;;;3.00;;
7583;SDS011;3833;41.764;26.204;2023-07-31T05:09:15;3.70;;;2.80;;
7583;SDS011;3833;41.764;26.204;2023-07-31T05:11:41;2.93;;;2.73;;
7583;SDS011;3833;41.764;26.204;2023-07-31T05:14:08;3.27;;;2.63;;
7583;SDS011;3833;41.764;26.204;2023-07-31T05:16:35;3.73;;;2.50;;
7583;SDS011;3833;41.764;26.204;2023-07-31T05:19:02;3.00;;;2.77;;
7583;SDS011;3833;41.764;26.204;2023-07-31T05:21:29;3.67;;;2.80;;
7583;SDS011;3833;41.764;26.204;2023-07-31T05:23:56;4.27;;;2.83;;
7583;SDS011;3833;41.764;26.204;2023-07-31T05:26:24;3.10;;;2.77;;
7583;SDS011;3833;41.764;26.204;2023-07-31T05:28:51;2.93;;;2.73;;
7583;SDS011;3833;41.764;26.204;2023-07-31T05:31:17;6.83;;;3.07;;
7583;SDS011;3833;41.764;26.204;2023-07-31T05:33:46;4.00;;;3.03;;
7583;SDS011;3833;41.764;26.204;2023-07-31T05:36:12;3.50;;;3.20;;
7583;SDS011;3833;41.764;26.204;2023-07-31T05:38:39;3.83;;;2.77;;
7583;SDS011;3833;41.764;26.204;2023-07-31T05:41:07;4.93;;;2.90;;
7583;SDS011;3833;41.764;26.204;2023-07-31T05:43:35;5.17;;;3.20;;
7583;SDS011;3833;41.764;26.204;2023-07-31T05:46:02;3.43;;;2.60;;
7583;SDS011;3833;41.764;26.204;2023-07-31T05:48:29;2.97;;;2.67;;
7583;SDS011;3833;41.764;26.204;2023-07-31T05:50:56;5.07;;;2.93;;
7583;SDS011;3833;41.764;26.204;2023-07-31T05:53:23;3.73;;;2.87;;
7583;SDS011;3833;41.764;26.204;2023-07-31T05:55:50;2.67;;;2.47;;
7583;SDS011;3833;41.764;26.204;2023-07-31T05:58:16;3.00;;;2.70;;
7583;SDS011;3833;41.764;26.204;2023-07-31T06:00:45;3.77;;;2.77;;
7583;SDS011;3833;41.764;26.204;2023-07-31T06:03:11;4.73;;;3.47;;
7583;SDS011;3833;41.764;26.204;2023-07-31T06:05:38;4.23;;;2.60;;
7583;SDS011;3833;41.764;26.204;2023-07-31T06:08:05;3.63;;;2.73;;
7583;SDS011;3833;41.764;26.204;2023-07-31T06:10:32;4.37;;;2.60;;
7583;SDS011;3833;41.764;26.204;2023-07-31T06:13:00;2.70;;;2.50;;
7583;SDS011;3833;41.764;26.204;2023-07-31T06:15:26;4.73;;;2.87;;
7583;SDS011;3833;41.764;26.204;2023-07-31T06:17:55;3.10;;;2.80;;
7583;SDS011;3833;41.764;26.204;2023-07-31T06:20:22;3.13;;;2.50;;
7583;SDS011;3833;41.764;26.204;2023-07-31T06:22:49;3.77;;;2.70;;
7583;SDS011;3833;41.764;26.204;2023-07-31T06:25:16;2.73;;;2.50;;
7583;SDS011;3833;41.764;26.204;2023-07-31T06:27:43;4.87;;;2.90;;
7583;SDS011;3833;41.764;26.204;2023-07-31T06:30:10;4.13;;;2.30;;
7583;SDS011;3833;41.764;26.204;2023-07-31T06:32:37;3.00;;;2.70;;
7583;SDS011;3833;41.764;26.204;2023-07-31T06:35:07;3.10;;;2.80;;
7583;SDS011;3833;41.764;26.204;2023-07-31T06:37:34;3.20;;;2.90;;
7583;SDS011;3833;41.764;26.204;2023-07-31T06:40:01;3.03;;;2.73;;
7583;SDS011;3833;41.764;26.204;2023-07-31T06:42:31;3.20;;;2.90;;
7583;SDS011;3833;41.764;26.204;2023-07-31T06:44:58;3.53;;;2.60;;
7583;SDS011;3833;41.764;26.204;2023-07-31T06:47:24;4.27;;;2.77;;
7583;SDS011;3833;41.764;26.204;2023-07-31T06:49:51;2.53;;;2.33;;
7583;SDS011;3833;41.764;26.204;2023-07-31T06:52:19;3.50;;;2.80;;
7583;SDS011;3833;41.764;26.204;2023-07-31T06:54:59;4.20;;;3.07;;
7583;SDS011;3833;41.764;26.204;2023-07-31T06:57:27;3.27;;;2.60;;
7583;SDS011;3833;41.764;26.204;2023-07-31T06:59:53;3.30;;;2.87;;
7583;SDS011;3833;41.764;26.204;2023-07-31T07:02:20;5.60;;;3.17;;
7583;SDS011;3833;41.764;26.204;2023-07-31T07:04:48;3.07;;;2.87;;
7583;SDS011;3833;41.764;26.204;2023-07-31T07:07:16;3.53;;;2.87;;
7583;SDS011;3833;41.764;26.204;2023-07-31T07:09:45;4.73;;;3.37;;
7583;SDS011;3833;41.764;26.204;2023-07-31T07:12:12;3.03;;;2.83;;
7583;SDS011;3833;41.764;26.204;2023-07-31T07:14:38;10.83;;;7.50;;
7583;SDS011;3833;41.764;26.204;2023-07-31T07:17:05;7.60;;;4.60;;
7583;SDS011;3833;41.764;26.204;2023-07-31T07:19:32;7.57;;;3.63;;
7583;SDS011;3833;41.764;26.204;2023-07-31T07:21:59;3.90;;;3.20;;
7583;SDS011;3833;41.764;26.204;2023-07-31T07:24:27;4.53;;;4.00;;
7583;SDS011;3833;41.764;26.204;2023-07-31T07:26:55;5.40;;;4.23;;
7583;SDS011;3833;41.764;26.204;2023-07-31T07:29:22;5.20;;;4.80;;
7583;SDS011;3833;41.764;26.204;2023-07-31T07:31:49;5.03;;;4.63;;
7583;SDS011;3833;41.764;26.204;2023-07-31T07:34:16;5.80;;;4.03;;
7583;SDS011;3833;41.764;26.204;2023-07-31T07:36:43;5.00;;;4.50;;
7583;SDS011;3833;41.764;26.204;2023-07-31T07:39:11;5.07;;;4.07;;
7583;SDS011;3833;41.764;26.204;2023-07-31T07:41:38;6.57;;;4.30;;
7583;SDS011;3833;41.764;26.204;2023-07-31T07:44:06;5.27;;;4.53;;
7583;SDS011;3833;41.764;26.204;2023-07-31T07:46:33;5.23;;;4.63;;
7583;SDS011;3833;41.764;26.204;2023-07-31T07:49:00;5.23;;;4.83;;
7583;SDS011;3833;41.764;26.204;2023-07-31T07:51:27;7.33;;;5.20;;
7583;SDS011;3833;41.764;26.204;2023-07-31T07:53:55;5.43;;;4.80;;
7583;SDS011;3833;41.764;26.204;2023-07-31T07:56:23;5.40;;;4.90;;
7583;SDS011;3833;41.764;26.204;2023-07-31T07:58:50;6.47;;;5.03;;
7583;SDS011;3833;41.764;26.204;2023-07-31T08:01:19;5.40;;;4.83;;
7583;SDS011;3833;41.764;26.204;2023-07-31T08:03:46;6.77;;;5.00;;
7583;SDS011;3833;41.764;26.204;2023-07-31T08:06:13;5.60;;;5.00;;
7583;SDS011;3833;41.764;26.204;2023-07-31T08:08:40;5.43;;;4.90;;
7583;SDS011;3833;41.764;26.204;2023-07-31T08:11:07;5.73;;;5.00;;
7583;SDS011;3833;41.764;26.204;2023-07-31T08:13:34;5.50;;;5.00;;
7583;SDS011;3833;41.764;26.204;2023-07-31T08:16:02;11.87;;;6.13;;
7583;SDS011;3833;41.764;26.204;2023-07-31T08:18:30;8.87;;;5.40;;
7583;SDS011;3833;41.764;26.204;2023-07-31T08:20:57;5.93;;;5.33;;
7583;SDS011;3833;41.764;26.204;2023-07-31T08:23:24;5.43;;;4.93;;
7583;SDS011;3833;41.764;26.204;2023-07-31T08:25:51;6.37;;;5.80;;
7583;SDS011;3833;41.764;26.204;2023-07-31T08:28:18;5.57;;;5.00;;
7583;SDS011;3833;41.764;26.204;2023-07-31T08:30:44;5.90;;;5.30;;
7583;SDS011;3833;41.764;26.204;2023-07-31T08:33:11;5.97;;;5.37;;
7583;SDS011;3833;41.764;26.204;2023-07-31T08:35:40;6.40;;;5.90;;
7583;SDS011;3833;41.764;26.204;2023-07-31T08:38:06;6.33;;;5.73;;
7583;SDS011;3833;41.764;26.204;2023-07-31T08:40:35;5.70;;;5.23;;
7583;SDS011;3833;41.764;26.204;2023-07-31T08:43:02;6.53;;;5.90;;
7583;SDS011;3833;41.764;26.204;2023-07-31T08:45:29;6.67;;;5.20;;
7583;SDS011;3833;41.764;26.204;2023-07-31T08:47:57;6.87;;;5.57;;
7583;SDS011;3833;41.764;26.204;2023-07-31T08:50:24;6.97;;;6.27;;
7583;SDS011;3833;41.764;26.204;2023-07-31T08:52:52;6.27;;;5.77;;
7583;SDS011;3833;41.764;26.204;2023-07-31T08:55:19;6.30;;;5.70;;
7583;SDS011;3833;41.764;26.204;2023-07-31T08:57:48;6.17;;;5.53;;
7583;SDS011;3833;41.764;26.204;2023-07-31T09:00:17;6.43;;;5.53;;
7583;SDS011;3833;41.764;26.204;2023-07-31T09:02:46;5.40;;;5.00;;
7583;SDS011;3833;41.764;26.204;2023-07-31T09:05:14;5.80;;;5.30;;
7583;SDS011;3833;41.764;26.204;2023-07-31T09:07:42;5.70;;;5.20;;
7583;SDS011;3833;41.764;26.204;2023-07-31T09:10:12;5.33;;;4.90;;
7583;SDS011;3833;41.764;26.204;2023-07-31T09:12:40;6.17;;;5.67;;
7583;SDS011;3833;41.764;26.204;2023-07-31T09:15:07;6.13;;;5.53;;
7583;SDS011;3833;41.764;26.204;2023-07-31T09:17:35;6.37;;;5.27;;
7583;SDS011;3833;41.764;26.204;2023-07-31T09:20:12;5.50;;;5.10;;
7583;SDS011;3833;41.764;26.204;2023-07-31T09:22:40;6.33;;;5.13;;
7583;SDS011;3833;41.764;26.204;2023-07-31T09:25:15;6.20;;;5.70;;
7583;SDS011;3833;41.764;26.204;2023-07-31T09:27:53;6.10;;;5.60;;
7583;SDS011;3833;41.764;26.204;2023-07-31T09:30:20;6.83;;;6.03;;
7583;SDS011;3833;41.764;26.204;2023-07-31T09:32:48;6.17;;;5.67;;
7583;SDS011;3833;41.764;26.204;2023-07-31T09:35:18;6.67;;;6.13;;
7583;SDS011;3833;41.764;26.204;2023-07-31T09:37:50;6.70;;;6.10;;
7583;SDS011;3833;41.764;26.204;2023-07-31T09:40:29;7.40;;;5.77;;
7583;SDS011;3833;41.764;26.204;2023-07-31T09:42:56;6.83;;;6.07;;
7583;SDS011;3833;41.764;26.204;2023-07-31T09:45:24;7.23;;;5.83;;
7583;SDS011;3833;41.764;26.204;2023-07-31T09:47:51;7.20;;;6.40;;
7583;SDS011;3833;41.764;26.204;2023-07-31T09:50:19;6.33;;;5.83;;
7583;SDS011;3833;41.764;26.204;2023-07-31T09:52:47;7.73;;;5.73;;
7583;SDS011;3833;41.764;26.204;2023-07-31T09:55:14;6.03;;;5.50;;
7583;SDS011;3833;41.764;26.204;2023-07-31T09:57:43;6.10;;;5.37;;
7583;SDS011;3833;41.764;26.204;2023-07-31T10:00:11;5.77;;;5.33;;
7583;SDS011;3833;41.764;26.204;2023-07-31T10:02:39;5.87;;;5.30;;
7583;SDS011;3833;41.764;26.204;2023-07-31T10:05:06;5.63;;;5.13;;
7583;SDS011;3833;41.764;26.204;2023-07-31T10:07:34;5.47;;;5.07;;
7583;SDS011;3833;41.764;26.204;2023-07-31T10:10:03;5.80;;;5.30;;
7583;SDS011;3833;41.764;26.204;2023-07-31T10:12:31;5.63;;;5.13;;
7583;SDS011;3833;41.764;26.204;2023-07-31T10:15:01;6.30;;;5.80;;
7583;SDS011;3833;41.764;26.204;2023-07-31T10:17:29;6.53;;;6.03;;
7583;SDS011;3833;41.764;26.204;2023-07-31T10:19:56;6.53;;;6.03;;
7583;SDS011;3833;41.764;26.204;2023-07-31T10:22:24;6.80;;;6.30;;
7583;SDS011;3833;41.764;26.204;2023-07-31T10:24:52;6.47;;;5.93;;
7583;SDS011;3833;41.764;26.204;2023-07-31T10:27:19;6.70;;;6.10;;
7583;SDS011;3833;41.764;26.204;2023-07-31T10:29:46;6.90;;;6.30;;
7583;SDS011;3833;41.764;26.204;2023-07-31T10:32:15;6.90;;;6.40;;
7583;SDS011;3833;41.764;26.204;2023-07-31T10:34:42;7.23;;;6.73;;
7583;SDS011;3833;41.764;26.204;2023-07-31T10:37:22;7.20;;;6.60;;
7583;SDS011;3833;41.764;26.204;2023-07-31T10:39:57;6.93;;;6.33;;
7583;SDS011;3833;41.764;26.204;2023-07-31T10:42:32;7.27;;;6.67;;
7583;SDS011;3833;41.764;26.204;2023-07-31T10:45:00;7.07;;;6.57;;
7583;SDS011;3833;41.764;26.204;2023-07-31T10:47:30;8.00;;;6.70;;
7583;SDS011;3833;41.764;26.204;2023-07-31T10:52:55;7.03;;;6.43;;
7583;SDS011;3833;41.764;26.204;2023-07-31T10:55:24;7.57;;;6.90;;
7583;SDS011;3833;41.764;26.204;2023-07-31T10:57:55;7.17;;;6.53;;
7583;SDS011;3833;41.764;26.204;2023-07-31T11:00:27;7.03;;;6.33;;
7583;SDS011;3833;41.764;26.204;2023-07-31T11:03:03;6.87;;;6.27;;
7583;SDS011;3833;41.764;26.204;2023-07-31T11:05:41;6.60;;;6.10;;
7583;SDS011;3833;41.764;26.204;2023-07-31T11:08:12;6.67;;;6.07;;
7583;SDS011;3833;41.764;26.204;2023-07-31T11:10:39;7.10;;;6.60;;
7583;SDS011;3833;41.764;26.204;2023-07-31T11:13:06;7.23;;;6.67;;
7583;SDS011;3833;41.764;26.204;2023-07-31T11:15:35;6.97;;;6.40;;
7583;SDS011;3833;41.764;26.204;2023-07-31T11:18:03;6.70;;;6.13;;
7583;SDS011;3833;41.764;26.204;2023-07-31T11:20:33;7.03;;;6.47;;
7583;SDS011;3833;41.764;26.204;2023-07-31T11:23:02;6.97;;;6.47;;
7583;SDS011;3833;41.764;26.204;2023-07-31T11:25:30;7.07;;;6.37;;
7583;SDS011;3833;41.764;26.204;2023-07-31T11:28:01;6.83;;;6.33;;
7583;SDS011;3833;41.764;26.204;2023-07-31T11:30:29;7.23;;;6.63;;
7583;SDS011;3833;41.764;26.204;2023-07-31T11:32:56;7.30;;;6.70;;
7583;SDS011;3833;41.764;26.204;2023-07-31T11:35:28;7.50;;;6.90;;
7583;SDS011;3833;41.764;26.204;2023-07-31T11:37:55;6.53;;;5.97;;
7583;SDS011;3833;41.764;26.204;2023-07-31T11:40:22;7.80;;;7.20;;
7583;SDS011;3833;41.764;26.204;2023-07-31T11:42:54;6.80;;;6.20;;
7583;SDS011;3833;41.764;26.204;2023-07-31T11:45:21;7.37;;;6.77;;
7583;SDS011;3833;41.764;26.204;2023-07-31T11:47:52;7.43;;;6.83;;
7583;SDS011;3833;41.764;26.204;2023-07-31T11:50:20;8.10;;;7.47;;
7583;SDS011;3833;41.764;26.204;2023-07-31T11:52:49;8.03;;;7.33;;
7583;SDS011;3833;41.764;26.204;2023-07-31T11:55:17;7.30;;;6.80;;
7583;SDS011;3833;41.764;26.204;2023-07-31T11:57:44;8.17;;;7.53;;
7583;SDS011;3833;41.764;26.204;2023-07-31T12:00:12;8.43;;;7.80;;
7583;SDS011;3833;41.764;26.204;2023-07-31T12:02:40;8.30;;;7.60;;
7583;SDS011;3833;41.764;26.204;2023-07-31T12:05:10;8.53;;;7.87;;
7583;SDS011;3833;41.764;26.204;2023-07-31T12:07:47;8.30;;;7.67;;
7583;SDS011;3833;41.764;26.204;2023-07-31T12:10:23;8.10;;;7.50;;
7583;SDS011;3833;41.764;26.204;2023-07-31T12:13:01;8.50;;;7.80;;
7583;SDS011;3833;41.764;26.204;2023-07-31T12:15:32;7.53;;;6.93;;
7583;SDS011;3833;41.764;26.204;2023-07-31T12:18:00;6.93;;;6.33;;
7583;SDS011;3833;41.764;26.204;2023-07-31T12:20:27;7.17;;;6.63;;
7583;SDS011;3833;41.764;26.204;2023-07-31T12:22:58;7.57;;;7.00;;
7583;SDS011;3833;41.764;26.204;2023-07-31T12:25:28;7.37;;;6.73;;
7583;SDS011;3833;41.764;26.204;2023-07-31T12:27:56;7.00;;;6.40;;
7583;SDS011;3833;41.764;26.204;2023-07-31T12:30:27;7.00;;;6.40;;
7583;SDS011;3833;41.764;26.204;2023-07-31T12:32:54;7.53;;;6.93;;
7583;SDS011;3833;41.764;26.204;2023-07-31T12:35:21;8.97;;;6.20;;
7583;SDS011;3833;41.764;26.204;2023-07-31T12:37:48;7.17;;;6.57;;
7583;SDS011;3833;41.764;26.204;2023-07-31T12:40:17;7.50;;;6.97;;
7583;SDS011;3833;41.764;26.204;2023-07-31T12:42:44;7.23;;;6.73;;
7583;SDS011;3833;41.764;26.204;2023-07-31T12:45:11;7.23;;;6.73;;
7583;SDS011;3833;41.764;26.204;2023-07-31T12:47:38;8.13;;;7.43;;
7583;SDS011;3833;41.764;26.204;2023-07-31T12:50:05;7.10;;;6.50;;
7583;SDS011;3833;41.764;26.204;2023-07-31T12:52:33;7.50;;;6.90;;
7583;SDS011;3833;41.764;26.204;2023-07-31T12:55:00;7.70;;;6.97;;
7583;SDS011;3833;41.764;26.204;2023-07-31T12:57:28;6.90;;;6.40;;
7583;SDS011;3833;41.764;26.204;2023-07-31T12:59:55;7.00;;;6.50;;
7583;SDS011;3833;41.764;26.204;2023-07-31T13:02:22;7.10;;;6.50;;
7583;SDS011;3833;41.764;26.204;2023-07-31T13:04:49;7.00;;;6.50;;
7583;SDS011;3833;41.764;26.204;2023-07-31T13:07:16;6.77;;;6.17;;
7583;SDS011;3833;41.764;26.204;2023-07-31T13:09:43;6.73;;;6.20;;
7583;SDS011;3833;41.764;26.204;2023-07-31T13:12:10;6.87;;;6.37;;
7583;SDS011;3833;41.764;26.204;2023-07-31T13:14:38;6.77;;;6.27;;
7583;SDS011;3833;41.764;26.204;2023-07-31T13:17:05;7.40;;;6.80;;
7583;SDS011;3833;41.764;26.204;2023-07-31T13:19:31;6.43;;;5.93;;
7583;SDS011;3833;41.764;26.204;2023-07-31T13:21:58;6.77;;;6.27;;
7583;SDS011;3833;41.764;26.204;2023-07-31T13:24:25;6.70;;;6.13;;
7583;SDS011;3833;41.764;26.204;2023-07-31T13:26:52;5.93;;;5.43;;
7583;SDS011;3833;41.764;26.204;2023-07-31T13:29:19;6.90;;;6.40;;
7583;SDS011;3833;41.764;26.204;2023-07-31T13:31:48;7.13;;;6.53;;
7583;SDS011;3833;41.764;26.204;2023-07-31T13:34:15;6.57;;;6.00;;
7583;SDS011;3833;41.764;26.204;2023-07-31T13:36:42;7.13;;;6.43;;
7583;SDS011;3833;41.764;26.204;2023-07-31T13:39:09;6.70;;;6.20;;
7583;SDS011;3833;41.764;26.204;2023-07-31T13:41:36;6.80;;;6.30;;
7583;SDS011;3833;41.764;26.204;2023-07-31T13:44:03;6.87;;;6.27;;
7583;SDS011;3833;41.764;26.204;2023-07-31T13:46:30;6.87;;;6.33;;
7583;SDS011;3833;41.764;26.204;2023-07-31T13:48:58;6.93;;;6.37;;
7583;SDS011;3833;41.764;26.204;2023-07-31T13:51:26;7.30;;;6.70;;
7583;SDS011;3833;41.764;26.204;2023-07-31T13:53:53;7.00;;;6.50;;
7583;SDS011;3833;41.764;26.204;2023-07-31T13:56:20;7.67;;;6.87;;
7583;SDS011;3833;41.764;26.204;2023-07-31T13:58:47;7.50;;;6.90;;
7583;SDS011;3833;41.764;26.204;2023-07-31T14:01:14;7.50;;;6.90;;
7583;SDS011;3833;41.764;26.204;2023-07-31T14:03:41;7.57;;;6.90;;
7583;SDS011;3833;41.764;26.204;2023-07-31T14:06:09;7.70;;;7.03;;
7583;SDS011;3833;41.764;26.204;2023-07-31T14:08:36;7.27;;;6.67;;
7583;SDS011;3833;41.764;26.204;2023-07-31T14:11:03;8.27;;;7.60;;
7583;SDS011;3833;41.764;26.204;2023-07-31T14:13:30;7.70;;;7.00;;
7583;SDS011;3833;41.764;26.204;2023-07-31T14:15:57;7.70;;;7.00;;
7583;SDS011;3833;41.764;26.204;2023-07-31T14:18:24;7.67;;;7.03;;
7583;SDS011;3833;41.764;26.204;2023-07-31T14:20:51;7.67;;;7.07;;
7583;SDS011;3833;41.764;26.204;2023-07-31T14:23:19;10.00;;;7.97;;
7583;SDS011;3833;41.764;26.204;2023-07-31T14:25:48;8.10;;;7.17;;
7583;SDS011;3833;41.764;26.204;2023-07-31T14:28:15;7.50;;;6.90;;
7583;SDS011;3833;41.764;26.204;2023-07-31T14:30:42;7.47;;;6.93;;
7583;SDS011;3833;41.764;26.204;2023-07-31T14:33:09;8.00;;;7.40;;
7583;SDS011;3833;41.764;26.204;2023-07-31T14:35:36;7.37;;;6.87;;
7583;SDS011;3833;41.764;26.204;2023-07-31T14:38:03;7.57;;;6.97;;
7583;SDS011;3833;41.764;26.204;2023-07-31T14:40:31;7.70;;;7.00;;
7583;SDS011;3833;41.764;26.204;2023-07-31T14:42:58;8.27;;;6.60;;
7583;SDS011;3833;41.764;26.204;2023-07-31T14:45:25;7.67;;;7.07;;
7583;SDS011;3833;41.764;26.204;2023-07-31T14:47:52;7.47;;;6.87;;
7583;SDS011;3833;41.764;26.204;2023-07-31T14:50:19;7.80;;;7.20;;
7583;SDS011;3833;41.764;26.204;2023-07-31T14:52:46;7.00;;;6.40;;
7583;SDS011;3833;41.764;26.204;2023-07-31T14:55:13;6.80;;;6.30;;
7583;SDS011;3833;41.764;26.204;2023-07-31T14:57:42;7.17;;;6.60;;
7583;SDS011;3833;41.764;26.204;2023-07-31T15:00:09;7.13;;;6.53;;
7583;SDS011;3833;41.764;26.204;2023-07-31T15:02:36;7.83;;;7.23;;
7583;SDS011;3833;41.764;26.204;2023-07-31T15:05:03;7.37;;;6.77;;
7583;SDS011;3833;41.764;26.204;2023-07-31T15:07:31;7.17;;;6.57;;